sensor_id;sensor_type;location;lat;lon;timestamp;temperature;humidity
19941;DHT22;10132;50.864;5.176;2023-04-03T00:01:28;2.50;99.90
19941;DHT22;10132;50.864;5.176;2023-04-03T00:03:30;2.60;99.90
19941;DHT22;10132;50.864;5.176;2023-04-03T00:05:33;2.60;99.90
19941;DHT22;10132;50.864;5.176;2023-04-03T00:07:35;2.70;99.90
19941;DHT22;10132;50.864;5.176;2023-04-03T00:09:37;2.60;99.90
19941;DHT22;10132;50.864;5.176;2023-04-03T00:11:39;2.50;99.90
19941;DHT22;10132;50.864;5.176;2023-04-03T00:13:41;2.50;99.90
19941;DHT22;10132;50.864;5.176;2023-04-03T00:15:43;2.40;99.90
19941;DHT22;10132;50.864;5.176;2023-04-03T00:17:47;2.30;99.90
19941;DHT22;10132;50.864;5.176;2023-04-03T00:19:48;2.30;99.90
19941;DHT22;10132;50.864;5.176;2023-04-03T00:21:50;2.20;99.90
19941;DHT22;10132;50.864;5.176;2023-04-03T00:23:56;2.20;99.90
19941;DHT22;10132;50.864;5.176;2023-04-03T00:25:57;2.30;99.90
19941;DHT22;10132;50.864;5.176;2023-04-03T00:28:00;2.40;99.90
19941;DHT22;10132;50.864;5.176;2023-04-03T00:30:02;2.40;99.90
19941;DHT22;10132;50.864;5.176;2023-04-03T00:32:04;2.20;99.90
19941;DHT22;10132;50.864;5.176;2023-04-03T00:34:07;2.10;99.90
19941;DHT22;10132;50.864;5.176;2023-04-03T00:36:10;2.20;99.90
19941;DHT22;10132;50.864;5.176;2023-04-03T00:38:13;2.30;99.90
19941;DHT22;10132;50.864;5.176;2023-04-03T00:40:16;2.30;99.90
19941;DHT22;10132;50.864;5.176;2023-04-03T00:42:18;2.40;99.90
19941;DHT22;10132;50.864;5.176;2023-04-03T00:44:22;2.50;99.90
19941;DHT22;10132;50.864;5.176;2023-04-03T00:46:24;2.50;99.90
19941;DHT22;10132;50.864;5.176;2023-04-03T00:48:29;2.40;99.90
19941;DHT22;10132;50.864;5.176;2023-04-03T00:50:35;2.20;99.90
19941;DHT22;10132;50.864;5.176;2023-04-03T00:52:38;2.10;99.90
19941;DHT22;10132;50.864;5.176;2023-04-03T00:54:41;2.20;99.90
19941;DHT22;10132;50.864;5.176;2023-04-03T00:56:44;2.30;99.90
19941;DHT22;10132;50.864;5.176;2023-04-03T00:58:49;2.40;99.90
19941;DHT22;10132;50.864;5.176;2023-04-03T01:00:56;2.30;99.90
19941;DHT22;10132;50.864;5.176;2023-04-03T01:02:59;2.30;99.90
19941;DHT22;10132;50.864;5.176;2023-04-03T01:05:02;2.30;99.90
19941;DHT22;10132;50.864;5.176;2023-04-03T01:07:07;2.30;99.90
19941;DHT22;10132;50.864;5.176;2023-04-03T01:09:10;2.30;99.90
19941;DHT22;10132;50.864;5.176;2023-04-03T01:11:12;2.30;99.90
19941;DHT22;10132;50.864;5.176;2023-04-03T01:13:24;2.30;99.90
19941;DHT22;10132;50.864;5.176;2023-04-03T01:15:27;2.30;99.90
19941;DHT22;10132;50.864;5.176;2023-04-03T01:17:33;2.30;99.90
19941;DHT22;10132;50.864;5.176;2023-04-03T01:19:38;2.20;99.90
19941;DHT22;10132;50.864;5.176;2023-04-03T01:22:07;2.20;99.90
19941;DHT22;10132;50.864;5.176;2023-04-03T01:24:27;2.10;99.90
19941;DHT22;10132;50.864;5.176;2023-04-03T01:26:33;1.90;99.90
19941;DHT22;10132;50.864;5.176;2023-04-03T01:28:36;1.80;99.90
19941;DHT22;10132;50.864;5.176;2023-04-03T01:30:43;1.80;99.90
19941;DHT22;10132;50.864;5.176;2023-04-03T01:32:47;1.70;99.90
19941;DHT22;10132;50.864;5.176;2023-04-03T01:34:50;1.60;99.90
19941;DHT22;10132;50.864;5.176;2023-04-03T01:36:52;1.60;99.90
19941;DHT22;10132;50.864;5.176;2023-04-03T01:38:55;1.60;99.90
19941;DHT22;10132;50.864;5.176;2023-04-03T01:40:57;1.70;99.90
19941;DHT22;10132;50.864;5.176;2023-04-03T01:42:59;1.60;99.90
19941;DHT22;10132;50.864;5.176;2023-04-03T01:45:01;1.50;99.90
19941;DHT22;10132;50.864;5.176;2023-04-03T01:47:05;1.60;99.90
19941;DHT22;10132;50.864;5.176;2023-04-03T01:49:09;1.60;99.90
19941;DHT22;10132;50.864;5.176;2023-04-03T01:51:11;1.70;99.90
19941;DHT22;10132;50.864;5.176;2023-04-03T01:53:13;1.70;99.90
19941;DHT22;10132;50.864;5.176;2023-04-03T01:55:15;1.70;99.90
19941;DHT22;10132;50.864;5.176;2023-04-03T01:57:17;1.60;99.90
19941;DHT22;10132;50.864;5.176;2023-04-03T01:59:19;1.70;99.90
19941;DHT22;10132;50.864;5.176;2023-04-03T02:01:21;1.80;99.90
19941;DHT22;10132;50.864;5.176;2023-04-03T02:03:23;1.80;99.90
19941;DHT22;10132;50.864;5.176;2023-04-03T02:05:27;1.80;99.90
19941;DHT22;10132;50.864;5.176;2023-04-03T02:07:29;1.80;99.90
19941;DHT22;10132;50.864;5.176;2023-04-03T02:09:31;1.80;99.90
19941;DHT22;10132;50.864;5.176;2023-04-03T02:11:33;1.80;99.90
19941;DHT22;10132;50.864;5.176;2023-04-03T02:13:35;1.80;99.90
19941;DHT22;10132;50.864;5.176;2023-04-03T02:15:38;1.80;99.90
19941;DHT22;10132;50.864;5.176;2023-04-03T02:17:40;1.90;99.90
19941;DHT22;10132;50.864;5.176;2023-04-03T02:19:42;1.90;99.90
19941;DHT22;10132;50.864;5.176;2023-04-03T02:21:45;1.90;99.90
19941;DHT22;10132;50.864;5.176;2023-04-03T02:23:47;1.90;99.90
19941;DHT22;10132;50.864;5.176;2023-04-03T02:25:49;1.90;99.90
19941;DHT22;10132;50.864;5.176;2023-04-03T02:27:51;1.80;99.90
19941;DHT22;10132;50.864;5.176;2023-04-03T02:29:53;1.70;99.90
19941;DHT22;10132;50.864;5.176;2023-04-03T02:31:55;1.60;99.90
19941;DHT22;10132;50.864;5.176;2023-04-03T02:33:56;1.60;99.90
19941;DHT22;10132;50.864;5.176;2023-04-03T02:35:59;1.70;99.90
19941;DHT22;10132;50.864;5.176;2023-04-03T02:38:02;1.70;99.90
19941;DHT22;10132;50.864;5.176;2023-04-03T02:40:05;1.70;99.90
19941;DHT22;10132;50.864;5.176;2023-04-03T02:42:09;1.60;99.90
19941;DHT22;10132;50.864;5.176;2023-04-03T02:44:11;1.70;99.90
19941;DHT22;10132;50.864;5.176;2023-04-03T02:46:13;1.70;99.90
19941;DHT22;10132;50.864;5.176;2023-04-03T02:48:16;1.60;99.90
19941;DHT22;10132;50.864;5.176;2023-04-03T02:50:18;1.40;99.90
19941;DHT22;10132;50.864;5.176;2023-04-03T02:52:20;1.30;99.90
19941;DHT22;10132;50.864;5.176;2023-04-03T02:54:23;1.20;99.90
19941;DHT22;10132;50.864;5.176;2023-04-03T02:56:29;1.20;99.90
19941;DHT22;10132;50.864;5.176;2023-04-03T02:58:31;1.20;99.90
19941;DHT22;10132;50.864;5.176;2023-04-03T03:00:33;1.10;99.90
19941;DHT22;10132;50.864;5.176;2023-04-03T03:02:35;1.00;99.90
19941;DHT22;10132;50.864;5.176;2023-04-03T03:04:37;1.00;99.90
19941;DHT22;10132;50.864;5.176;2023-04-03T03:06:39;1.00;99.90
19941;DHT22;10132;50.864;5.176;2023-04-03T03:08:42;1.00;99.90
19941;DHT22;10132;50.864;5.176;2023-04-03T03:10:45;1.20;99.90
19941;DHT22;10132;50.864;5.176;2023-04-03T03:12:48;1.30;99.90
19941;DHT22;10132;50.864;5.176;2023-04-03T03:14:50;1.30;99.90
19941;DHT22;10132;50.864;5.176;2023-04-03T03:16:52;1.40;99.90
19941;DHT22;10132;50.864;5.176;2023-04-03T03:18:54;1.40;99.90
19941;DHT22;10132;50.864;5.176;2023-04-03T03:20:57;1.40;99.90
19941;DHT22;10132;50.864;5.176;2023-04-03T03:23:00;1.50;99.90
19941;DHT22;10132;50.864;5.176;2023-04-03T03:25:02;1.50;99.90
19941;DHT22;10132;50.864;5.176;2023-04-03T03:27:06;1.50;99.90
19941;DHT22;10132;50.864;5.176;2023-04-03T03:29:08;1.50;99.90
19941;DHT22;10132;50.864;5.176;2023-04-03T03:31:12;1.40;99.90
19941;DHT22;10132;50.864;5.176;2023-04-03T03:33:15;1.30;99.90
19941;DHT22;10132;50.864;5.176;2023-04-03T03:35:17;1.10;99.90
19941;DHT22;10132;50.864;5.176;2023-04-03T03:37:19;1.00;99.90
19941;DHT22;10132;50.864;5.176;2023-04-03T03:39:21;0.90;99.90
19941;DHT22;10132;50.864;5.176;2023-04-03T03:41:23;0.90;99.90
19941;DHT22;10132;50.864;5.176;2023-04-03T03:43:27;0.80;99.90
19941;DHT22;10132;50.864;5.176;2023-04-03T03:45:29;0.90;99.90
19941;DHT22;10132;50.864;5.176;2023-04-03T03:47:31;1.10;99.90
19941;DHT22;10132;50.864;5.176;2023-04-03T03:49:33;1.10;99.90
19941;DHT22;10132;50.864;5.176;2023-04-03T03:51:38;1.20;99.90
19941;DHT22;10132;50.864;5.176;2023-04-03T03:53:40;1.10;99.90
19941;DHT22;10132;50.864;5.176;2023-04-03T03:55:42;1.00;99.90
19941;DHT22;10132;50.864;5.176;2023-04-03T03:57:44;0.90;99.90
19941;DHT22;10132;50.864;5.176;2023-04-03T03:59:47;0.90;99.90
19941;DHT22;10132;50.864;5.176;2023-04-03T04:01:50;0.90;99.90
19941;DHT22;10132;50.864;5.176;2023-04-03T04:03:52;0.90;99.90
19941;DHT22;10132;50.864;5.176;2023-04-03T04:05:55;0.90;99.90
19941;DHT22;10132;50.864;5.176;2023-04-03T04:07:57;1.00;99.90
19941;DHT22;10132;50.864;5.176;2023-04-03T04:09:59;1.10;99.90
19941;DHT22;10132;50.864;5.176;2023-04-03T04:12:01;1.20;99.90
19941;DHT22;10132;50.864;5.176;2023-04-03T04:14:03;1.20;99.90
19941;DHT22;10132;50.864;5.176;2023-04-03T04:16:10;1.30;99.90
19941;DHT22;10132;50.864;5.176;2023-04-03T04:18:12;1.20;99.90
19941;DHT22;10132;50.864;5.176;2023-04-03T04:20:14;1.10;99.90
19941;DHT22;10132;50.864;5.176;2023-04-03T04:22:16;1.00;99.90
19941;DHT22;10132;50.864;5.176;2023-04-03T04:24:18;1.10;99.90
19941;DHT22;10132;50.864;5.176;2023-04-03T04:26:20;0.90;99.90
19941;DHT22;10132;50.864;5.176;2023-04-03T04:28:25;0.90;99.90
19941;DHT22;10132;50.864;5.176;2023-04-03T04:30:27;0.80;99.90
19941;DHT22;10132;50.864;5.176;2023-04-03T04:32:30;0.80;99.90
19941;DHT22;10132;50.864;5.176;2023-04-03T04:34:32;0.70;99.90
19941;DHT22;10132;50.864;5.176;2023-04-03T04:36:34;0.70;99.90
19941;DHT22;10132;50.864;5.176;2023-04-03T04:38:36;0.80;99.90
19941;DHT22;10132;50.864;5.176;2023-04-03T04:40:39;0.80;99.90
19941;DHT22;10132;50.864;5.176;2023-04-03T04:42:42;0.80;99.90
19941;DHT22;10132;50.864;5.176;2023-04-03T04:44:44;0.80;99.90
19941;DHT22;10132;50.864;5.176;2023-04-03T04:46:46;0.70;99.90
19941;DHT22;10132;50.864;5.176;2023-04-03T04:48:49;0.60;99.90
19941;DHT22;10132;50.864;5.176;2023-04-03T04:50:51;0.70;99.90
19941;DHT22;10132;50.864;5.176;2023-04-03T04:52:56;0.70;99.90
19941;DHT22;10132;50.864;5.176;2023-04-03T04:54:58;0.80;99.90
19941;DHT22;10132;50.864;5.176;2023-04-03T04:57:00;0.90;99.90
19941;DHT22;10132;50.864;5.176;2023-04-03T04:59:02;0.90;99.90
19941;DHT22;10132;50.864;5.176;2023-04-03T05:01:06;0.80;99.90
19941;DHT22;10132;50.864;5.176;2023-04-03T05:03:08;0.80;99.90
19941;DHT22;10132;50.864;5.176;2023-04-03T05:05:11;0.70;99.90
19941;DHT22;10132;50.864;5.176;2023-04-03T05:07:13;0.60;99.90
19941;DHT22;10132;50.864;5.176;2023-04-03T05:09:15;0.60;99.90
19941;DHT22;10132;50.864;5.176;2023-04-03T05:11:17;0.70;99.90
19941;DHT22;10132;50.864;5.176;2023-04-03T05:13:20;0.70;99.90
19941;DHT22;10132;50.864;5.176;2023-04-03T05:15:23;0.60;99.90
19941;DHT22;10132;50.864;5.176;2023-04-03T05:17:25;0.60;99.90
19941;DHT22;10132;50.864;5.176;2023-04-03T05:19:27;0.60;99.90
19941;DHT22;10132;50.864;5.176;2023-04-03T05:21:30;0.60;99.90
19941;DHT22;10132;50.864;5.176;2023-04-03T05:23:32;0.60;99.90
19941;DHT22;10132;50.864;5.176;2023-04-03T05:25:34;0.60;99.90
19941;DHT22;10132;50.864;5.176;2023-04-03T05:27:38;0.70;99.90
19941;DHT22;10132;50.864;5.176;2023-04-03T05:29:40;0.80;99.90
19941;DHT22;10132;50.864;5.176;2023-04-03T05:31:44;0.90;99.90
19941;DHT22;10132;50.864;5.176;2023-04-03T05:33:46;0.90;99.90
19941;DHT22;10132;50.864;5.176;2023-04-03T05:35:48;0.80;99.90
19941;DHT22;10132;50.864;5.176;2023-04-03T05:37:51;0.70;99.90
19941;DHT22;10132;50.864;5.176;2023-04-03T05:39:53;0.80;99.90
19941;DHT22;10132;50.864;5.176;2023-04-03T05:41:55;0.80;99.90
19941;DHT22;10132;50.864;5.176;2023-04-03T05:43:57;0.80;99.90
19941;DHT22;10132;50.864;5.176;2023-04-03T05:45:59;1.00;99.90
19941;DHT22;10132;50.864;5.176;2023-04-03T05:48:01;1.20;99.90
19941;DHT22;10132;50.864;5.176;2023-04-03T05:50:04;1.30;99.90
19941;DHT22;10132;50.864;5.176;2023-04-03T05:52:06;1.10;99.90
19941;DHT22;10132;50.864;5.176;2023-04-03T05:54:15;1.10;99.90
19941;DHT22;10132;50.864;5.176;2023-04-03T05:56:19;1.20;99.90
19941;DHT22;10132;50.864;5.176;2023-04-03T05:58:21;1.20;99.90
19941;DHT22;10132;50.864;5.176;2023-04-03T06:00:23;1.30;99.90
19941;DHT22;10132;50.864;5.176;2023-04-03T06:02:25;1.40;99.90
19941;DHT22;10132;50.864;5.176;2023-04-03T06:04:31;1.50;99.90
19941;DHT22;10132;50.864;5.176;2023-04-03T06:06:44;1.60;99.90
19941;DHT22;10132;50.864;5.176;2023-04-03T06:08:47;1.70;99.90
19941;DHT22;10132;50.864;5.176;2023-04-03T06:10:50;1.80;99.90
19941;DHT22;10132;50.864;5.176;2023-04-03T06:12:52;1.90;99.90
19941;DHT22;10132;50.864;5.176;2023-04-03T06:14:55;1.90;99.90
19941;DHT22;10132;50.864;5.176;2023-04-03T06:16:57;2.00;99.90
19941;DHT22;10132;50.864;5.176;2023-04-03T06:19:00;2.00;99.90
19941;DHT22;10132;50.864;5.176;2023-04-03T06:21:02;2.10;99.90
19941;DHT22;10132;50.864;5.176;2023-04-03T06:23:05;2.20;99.90
19941;DHT22;10132;50.864;5.176;2023-04-03T06:25:08;2.30;99.90
19941;DHT22;10132;50.864;5.176;2023-04-03T06:27:12;2.40;99.90
19941;DHT22;10132;50.864;5.176;2023-04-03T06:29:14;2.50;99.90
19941;DHT22;10132;50.864;5.176;2023-04-03T06:31:16;2.60;99.90
19941;DHT22;10132;50.864;5.176;2023-04-03T06:33:18;2.60;99.90
19941;DHT22;10132;50.864;5.176;2023-04-03T06:35:20;2.70;99.90
19941;DHT22;10132;50.864;5.176;2023-04-03T06:37:24;2.70;99.90
19941;DHT22;10132;50.864;5.176;2023-04-03T06:39:28;2.80;99.90
19941;DHT22;10132;50.864;5.176;2023-04-03T06:41:31;3.00;99.90
19941;DHT22;10132;50.864;5.176;2023-04-03T06:43:34;3.10;99.90
19941;DHT22;10132;50.864;5.176;2023-04-03T06:45:36;3.20;99.90
19941;DHT22;10132;50.864;5.176;2023-04-03T06:47:38;3.30;99.90
19941;DHT22;10132;50.864;5.176;2023-04-03T06:49:41;3.40;99.90
19941;DHT22;10132;50.864;5.176;2023-04-03T06:51:43;3.50;99.90
19941;DHT22;10132;50.864;5.176;2023-04-03T06:53:45;3.50;99.90
19941;DHT22;10132;50.864;5.176;2023-04-03T06:55:47;3.50;99.90
19941;DHT22;10132;50.864;5.176;2023-04-03T06:57:49;3.60;99.90
19941;DHT22;10132;50.864;5.176;2023-04-03T06:59:52;3.70;99.90
19941;DHT22;10132;50.864;5.176;2023-04-03T07:01:55;3.80;99.90
19941;DHT22;10132;50.864;5.176;2023-04-03T07:03:57;4.00;99.90
19941;DHT22;10132;50.864;5.176;2023-04-03T07:05:59;4.10;99.90
19941;DHT22;10132;50.864;5.176;2023-04-03T07:08:01;4.20;99.90
19941;DHT22;10132;50.864;5.176;2023-04-03T07:10:03;4.30;99.90
19941;DHT22;10132;50.864;5.176;2023-04-03T07:12:06;4.30;99.90
19941;DHT22;10132;50.864;5.176;2023-04-03T07:14:08;4.40;99.90
19941;DHT22;10132;50.864;5.176;2023-04-03T07:16:11;4.60;99.90
19941;DHT22;10132;50.864;5.176;2023-04-03T07:18:13;4.80;99.90
19941;DHT22;10132;50.864;5.176;2023-04-03T07:20:15;4.90;99.90
19941;DHT22;10132;50.864;5.176;2023-04-03T07:22:18;4.80;99.90
19941;DHT22;10132;50.864;5.176;2023-04-03T07:24:19;5.00;99.90
19941;DHT22;10132;50.864;5.176;2023-04-03T07:26:22;5.10;99.90
19941;DHT22;10132;50.864;5.176;2023-04-03T07:28:24;5.30;99.90
19941;DHT22;10132;50.864;5.176;2023-04-03T07:30:26;5.40;99.90
19941;DHT22;10132;50.864;5.176;2023-04-03T07:32:30;5.40;99.90
19941;DHT22;10132;50.864;5.176;2023-04-03T07:34:32;5.40;99.90
19941;DHT22;10132;50.864;5.176;2023-04-03T07:36:34;5.60;99.90
19941;DHT22;10132;50.864;5.176;2023-04-03T07:38:36;5.70;99.90
19941;DHT22;10132;50.864;5.176;2023-04-03T07:40:39;5.90;99.90
19941;DHT22;10132;50.864;5.176;2023-04-03T07:42:41;6.10;99.90
19941;DHT22;10132;50.864;5.176;2023-04-03T07:44:43;6.20;99.90
19941;DHT22;10132;50.864;5.176;2023-04-03T07:46:45;6.30;99.90
19941;DHT22;10132;50.864;5.176;2023-04-03T07:48:48;6.40;99.90
19941;DHT22;10132;50.864;5.176;2023-04-03T07:50:50;6.30;99.90
19941;DHT22;10132;50.864;5.176;2023-04-03T07:52:52;6.30;99.90
19941;DHT22;10132;50.864;5.176;2023-04-03T07:54:55;6.50;99.90
19941;DHT22;10132;50.864;5.176;2023-04-03T07:56:57;6.70;99.90
19941;DHT22;10132;50.864;5.176;2023-04-03T07:58:59;6.90;99.90
19941;DHT22;10132;50.864;5.176;2023-04-03T08:01:01;7.00;99.90
19941;DHT22;10132;50.864;5.176;2023-04-03T08:03:03;7.30;99.90
19941;DHT22;10132;50.864;5.176;2023-04-03T08:05:07;7.40;99.90
19941;DHT22;10132;50.864;5.176;2023-04-03T08:07:09;7.50;99.90
19941;DHT22;10132;50.864;5.176;2023-04-03T08:09:11;7.40;99.90
19941;DHT22;10132;50.864;5.176;2023-04-03T08:11:14;7.40;99.90
19941;DHT22;10132;50.864;5.176;2023-04-03T08:13:16;7.60;99.90
19941;DHT22;10132;50.864;5.176;2023-04-03T08:15:18;8.00;99.90
19941;DHT22;10132;50.864;5.176;2023-04-03T08:17:20;8.20;99.90
19941;DHT22;10132;50.864;5.176;2023-04-03T08:19:22;8.30;99.90
19941;DHT22;10132;50.864;5.176;2023-04-03T08:21:25;8.10;99.90
19941;DHT22;10132;50.864;5.176;2023-04-03T08:23:27;7.70;99.90
19941;DHT22;10132;50.864;5.176;2023-04-03T08:25:29;7.90;99.90
19941;DHT22;10132;50.864;5.176;2023-04-03T08:27:32;8.00;99.90
19941;DHT22;10132;50.864;5.176;2023-04-03T08:29:34;8.10;99.90
19941;DHT22;10132;50.864;5.176;2023-04-03T08:31:38;8.30;99.90
19941;DHT22;10132;50.864;5.176;2023-04-03T08:33:40;8.40;99.90
19941;DHT22;10132;50.864;5.176;2023-04-03T08:35:42;8.60;99.90
19941;DHT22;10132;50.864;5.176;2023-04-03T08:37:46;8.60;99.90
19941;DHT22;10132;50.864;5.176;2023-04-03T08:39:47;8.50;99.90
19941;DHT22;10132;50.864;5.176;2023-04-03T08:41:50;8.60;99.90
19941;DHT22;10132;50.864;5.176;2023-04-03T08:43:58;8.60;99.90
19941;DHT22;10132;50.864;5.176;2023-04-03T08:46:05;9.00;99.90
19941;DHT22;10132;50.864;5.176;2023-04-03T08:48:12;9.20;99.90
19941;DHT22;10132;50.864;5.176;2023-04-03T08:50:19;9.40;99.90
19941;DHT22;10132;50.864;5.176;2023-04-03T08:52:26;9.60;99.90
19941;DHT22;10132;50.864;5.176;2023-04-03T08:54:33;9.70;99.90
19941;DHT22;10132;50.864;5.176;2023-04-03T08:56:36;9.70;99.90
19941;DHT22;10132;50.864;5.176;2023-04-03T08:58:44;9.60;99.90
19941;DHT22;10132;50.864;5.176;2023-04-03T09:00:50;9.70;99.90
19941;DHT22;10132;50.864;5.176;2023-04-03T09:02:55;10.10;99.90
19941;DHT22;10132;50.864;5.176;2023-04-03T09:04:57;10.40;99.90
19941;DHT22;10132;50.864;5.176;2023-04-03T09:07:05;10.50;99.90
19941;DHT22;10132;50.864;5.176;2023-04-03T09:09:13;10.30;99.90
19941;DHT22;10132;50.864;5.176;2023-04-03T09:11:24;10.50;99.90
19941;DHT22;10132;50.864;5.176;2023-04-03T09:13:33;10.50;99.90
19941;DHT22;10132;50.864;5.176;2023-04-03T09:15:39;10.00;99.90
19941;DHT22;10132;50.864;5.176;2023-04-03T09:17:49;9.90;99.90
19941;DHT22;10132;50.864;5.176;2023-04-03T09:19:58;9.90;99.90
19941;DHT22;10132;50.864;5.176;2023-04-03T09:22:07;9.90;99.90
19941;DHT22;10132;50.864;5.176;2023-04-03T09:24:14;10.10;99.90
19941;DHT22;10132;50.864;5.176;2023-04-03T09:26:21;10.30;99.90
19941;DHT22;10132;50.864;5.176;2023-04-03T09:28:25;10.50;99.90
19941;DHT22;10132;50.864;5.176;2023-04-03T09:30:27;10.30;99.90
19941;DHT22;10132;50.864;5.176;2023-04-03T09:32:31;10.10;99.90
19941;DHT22;10132;50.864;5.176;2023-04-03T09:34:36;10.20;99.90
19941;DHT22;10132;50.864;5.176;2023-04-03T09:36:40;10.30;99.90
19941;DHT22;10132;50.864;5.176;2023-04-03T09:38:43;10.10;99.90
19941;DHT22;10132;50.864;5.176;2023-04-03T09:40:48;10.50;99.90
19941;DHT22;10132;50.864;5.176;2023-04-03T09:42:54;10.70;99.90
19941;DHT22;10132;50.864;5.176;2023-04-03T09:44:57;10.80;99.90
19941;DHT22;10132;50.864;5.176;2023-04-03T09:46:59;10.80;99.90
19941;DHT22;10132;50.864;5.176;2023-04-03T09:49:03;10.40;99.90
19941;DHT22;10132;50.864;5.176;2023-04-03T09:51:08;10.80;99.90
19941;DHT22;10132;50.864;5.176;2023-04-03T09:53:27;10.90;99.90
19941;DHT22;10132;50.864;5.176;2023-04-03T09:55:29;11.20;99.90
19941;DHT22;10132;50.864;5.176;2023-04-03T09:57:33;11.50;99.90
19941;DHT22;10132;50.864;5.176;2023-04-03T09:59:38;11.50;99.90
19941;DHT22;10132;50.864;5.176;2023-04-03T10:01:43;11.60;99.90
19941;DHT22;10132;50.864;5.176;2023-04-03T10:04:08;11.70;99.90
19941;DHT22;10132;50.864;5.176;2023-04-03T10:06:22;12.00;99.90
19941;DHT22;10132;50.864;5.176;2023-04-03T10:08:28;12.10;99.90
19941;DHT22;10132;50.864;5.176;2023-04-03T10:10:31;11.90;99.90
19941;DHT22;10132;50.864;5.176;2023-04-03T10:12:33;11.70;99.90
19941;DHT22;10132;50.864;5.176;2023-04-03T10:14:38;11.30;99.90
19941;DHT22;10132;50.864;5.176;2023-04-03T10:16:45;10.70;99.90
19941;DHT22;10132;50.864;5.176;2023-04-03T10:19:03;10.70;99.90
19941;DHT22;10132;50.864;5.176;2023-04-03T10:21:13;10.80;99.90
19941;DHT22;10132;50.864;5.176;2023-04-03T10:23:20;10.80;99.90
19941;DHT22;10132;50.864;5.176;2023-04-03T10:25:30;11.20;99.90
19941;DHT22;10132;50.864;5.176;2023-04-03T10:27:44;11.60;99.90
19941;DHT22;10132;50.864;5.176;2023-04-03T10:29:52;11.60;99.90
19941;DHT22;10132;50.864;5.176;2023-04-03T10:32:02;11.60;99.90
19941;DHT22;10132;50.864;5.176;2023-04-03T10:34:17;11.80;99.90
19941;DHT22;10132;50.864;5.176;2023-04-03T10:36:32;11.40;99.90
19941;DHT22;10132;50.864;5.176;2023-04-03T10:38:43;11.80;99.90
19941;DHT22;10132;50.864;5.176;2023-04-03T10:40:52;11.70;99.90
19941;DHT22;10132;50.864;5.176;2023-04-03T10:43:04;11.60;99.90
19941;DHT22;10132;50.864;5.176;2023-04-03T10:45:21;11.60;99.90
19941;DHT22;10132;50.864;5.176;2023-04-03T10:47:29;11.90;99.90
19941;DHT22;10132;50.864;5.176;2023-04-03T10:49:43;11.70;99.90
19941;DHT22;10132;50.864;5.176;2023-04-03T10:51:49;11.40;99.90
19941;DHT22;10132;50.864;5.176;2023-04-03T10:53:59;11.60;99.90
19941;DHT22;10132;50.864;5.176;2023-04-03T10:56:06;12.10;99.90
19941;DHT22;10132;50.864;5.176;2023-04-03T10:58:20;12.30;99.90
19941;DHT22;10132;50.864;5.176;2023-04-03T11:00:31;12.00;99.90
19941;DHT22;10132;50.864;5.176;2023-04-03T11:02:37;12.00;99.90
19941;DHT22;10132;50.864;5.176;2023-04-03T11:04:45;11.90;99.90
19941;DHT22;10132;50.864;5.176;2023-04-03T11:06:53;11.80;99.90
19941;DHT22;10132;50.864;5.176;2023-04-03T11:08:59;11.80;99.90
19941;DHT22;10132;50.864;5.176;2023-04-03T11:11:06;12.10;99.90
19941;DHT22;10132;50.864;5.176;2023-04-03T11:13:13;11.90;99.90
19941;DHT22;10132;50.864;5.176;2023-04-03T11:15:18;12.10;99.90
19941;DHT22;10132;50.864;5.176;2023-04-03T11:17:30;12.60;99.90
19941;DHT22;10132;50.864;5.176;2023-04-03T11:19:36;12.60;99.90
19941;DHT22;10132;50.864;5.176;2023-04-03T11:21:42;12.30;99.90
19941;DHT22;10132;50.864;5.176;2023-04-03T11:23:48;12.20;99.90
19941;DHT22;10132;50.864;5.176;2023-04-03T11:25:53;12.30;99.90
19941;DHT22;10132;50.864;5.176;2023-04-03T11:27:57;12.40;99.90
19941;DHT22;10132;50.864;5.176;2023-04-03T11:29:59;12.60;99.90
19941;DHT22;10132;50.864;5.176;2023-04-03T11:32:11;12.70;99.90
19941;DHT22;10132;50.864;5.176;2023-04-03T11:34:27;12.80;99.90
19941;DHT22;10132;50.864;5.176;2023-04-03T11:36:40;12.90;99.90
19941;DHT22;10132;50.864;5.176;2023-04-03T11:38:45;12.80;99.90
19941;DHT22;10132;50.864;5.176;2023-04-03T11:40:49;12.80;99.90
19941;DHT22;10132;50.864;5.176;2023-04-03T11:42:54;13.00;99.90
19941;DHT22;10132;50.864;5.176;2023-04-03T11:45:29;13.00;99.20
19941;DHT22;10132;50.864;5.176;2023-04-03T11:47:48;13.10;99.80
19941;DHT22;10132;50.864;5.176;2023-04-03T11:49:59;13.20;99.90
19941;DHT22;10132;50.864;5.176;2023-04-03T11:52:02;13.30;99.90
19941;DHT22;10132;50.864;5.176;2023-04-03T11:56:43;13.50;99.90
19941;DHT22;10132;50.864;5.176;2023-04-03T11:59:22;13.60;99.90
19941;DHT22;10132;50.864;5.176;2023-04-03T12:01:44;13.40;99.90
19941;DHT22;10132;50.864;5.176;2023-04-03T12:04:06;13.60;99.90
19941;DHT22;10132;50.864;5.176;2023-04-03T12:09:00;13.60;99.40
19941;DHT22;10132;50.864;5.176;2023-04-03T12:11:15;13.70;99.90
19941;DHT22;10132;50.864;5.176;2023-04-03T12:13:18;13.70;99.90
19941;DHT22;10132;50.864;5.176;2023-04-03T12:15:38;13.90;99.90
19941;DHT22;10132;50.864;5.176;2023-04-03T12:17:43;14.00;99.90
19941;DHT22;10132;50.864;5.176;2023-04-03T12:19:45;13.90;99.90
19941;DHT22;10132;50.864;5.176;2023-04-03T12:22:09;13.80;99.90
19941;DHT22;10132;50.864;5.176;2023-04-03T12:24:25;13.20;99.90
19941;DHT22;10132;50.864;5.176;2023-04-03T12:26:31;13.00;99.90
19941;DHT22;10132;50.864;5.176;2023-04-03T12:28:39;13.40;99.90
19941;DHT22;10132;50.864;5.176;2023-04-03T12:30:42;13.70;99.90
19941;DHT22;10132;50.864;5.176;2023-04-03T12:32:56;13.40;99.90
19941;DHT22;10132;50.864;5.176;2023-04-03T12:35:14;13.50;99.90
19941;DHT22;10132;50.864;5.176;2023-04-03T12:37:29;13.70;99.90
19941;DHT22;10132;50.864;5.176;2023-04-03T12:39:59;14.10;99.90
19941;DHT22;10132;50.864;5.176;2023-04-03T12:42:18;13.80;99.90
19941;DHT22;10132;50.864;5.176;2023-04-03T12:44:44;14.10;99.90
19941;DHT22;10132;50.864;5.176;2023-04-03T12:46:49;14.10;99.90
19941;DHT22;10132;50.864;5.176;2023-04-03T12:48:53;14.10;99.90
19941;DHT22;10132;50.864;5.176;2023-04-03T12:50:56;14.10;99.90
19941;DHT22;10132;50.864;5.176;2023-04-03T12:53:01;14.00;99.90
19941;DHT22;10132;50.864;5.176;2023-04-03T12:55:14;14.20;99.90
19941;DHT22;10132;50.864;5.176;2023-04-03T12:57:18;14.40;99.90
19941;DHT22;10132;50.864;5.176;2023-04-03T13:02:24;14.40;99.90
19941;DHT22;10132;50.864;5.176;2023-04-03T13:04:27;14.40;99.90
19941;DHT22;10132;50.864;5.176;2023-04-03T13:06:33;14.70;99.90
19941;DHT22;10132;50.864;5.176;2023-04-03T13:08:36;15.10;99.90
19941;DHT22;10132;50.864;5.176;2023-04-03T13:10:51;15.00;99.90
19941;DHT22;10132;50.864;5.176;2023-04-03T13:12:55;14.30;99.90
19941;DHT22;10132;50.864;5.176;2023-04-03T13:14:59;14.10;99.90
19941;DHT22;10132;50.864;5.176;2023-04-03T13:17:11;14.10;99.90
19941;DHT22;10132;50.864;5.176;2023-04-03T13:19:17;14.20;99.90
19941;DHT22;10132;50.864;5.176;2023-04-03T13:21:20;14.40;99.90
19941;DHT22;10132;50.864;5.176;2023-04-03T13:23:24;14.50;99.90
19941;DHT22;10132;50.864;5.176;2023-04-03T13:25:28;14.20;99.90
19941;DHT22;10132;50.864;5.176;2023-04-03T13:27:32;14.60;99.90